CheckWX is a tool to help pilots better visualize weather data.  It is not intended as a substitute for an official pre-flight weather briefing.

07:14:28 UTC

CYYN METAR
Swift Current Airport
Swift Current, Canada
Current

14 mins ago

CYYN 210700Z AUTO 16006KT 9SM CLR 03/M03 A2996 RMK ICG INTMT SLP161
Observed
May-21 @ 07:00 UTC
Wind
  • 160° at 6 KTS
Visibility
9 SM
Flight Rules
VFR
Cloud Levels
  • Clear skies
Temperature
C / 37°F
Dewpoint
-3°C / 27°F
Humidity
65%
Altimeter
29.96" Hg
Pressure
1014.52 hPa
Previous

17 mins ago

CYYN 210657Z AUTO 16007KT 9SM CLR 03/M03 A2996 RMK ICG SLP162
Observed
May-21 @ 06:57 UTC
Wind
  • 160° at 7 KTS
Visibility
9 SM
Flight Rules
VFR
Cloud Levels
  • Clear skies
Temperature
C / 37°F
Dewpoint
-3°C / 27°F
Humidity
65%
Altimeter
29.96" Hg
Pressure
1014.52 hPa
Previous

1 hour ago

CYYN 210600Z AUTO 17007KT 9SM CLR 04/M03 A2997 RMK SLP163
Observed
May-21 @ 06:00 UTC
Wind
  • 170° at 7 KTS
Visibility
9 SM
Flight Rules
VFR
Cloud Levels
  • Clear skies
Temperature
C / 39°F
Dewpoint
-3°C / 27°F
Humidity
61%
Altimeter
29.97" Hg
Pressure
1014.92 hPa